Time;durP1;ratioP1;P1;durP2;ratioP2;P2;SDS_P1;SDS_P2;PMS_P1;PMS_P2;Temp;Humidity;BMP_temperature;BMP_pressure;BME280_temperature;BME280_humidity;BME280_pressure;Samples;Min_cycle;Max_cycle;Signal;HPM_P1;HPM_P2
2023/12/21 00:08:23;;;;;;;2.97;0.70;;;;;;;17.74;64.63;99942.63;20829625;28;20109;-68
2023/12/21 00:18:26;;;;;;;2.35;0.70;;;;;;;17.72;64.82;99928.50;20823580;28;20489;-68
2023/12/21 00:28:27;;;;;;;1.35;0.60;;;;;;;17.73;64.87;99908.66;20814428;28;20386;-68
2023/12/21 00:38:29;;;;;;;1.95;0.52;;;;;;;17.75;64.82;99887.78;20790982;28;1090916;-68
2023/12/21 00:48:31;;;;;;;3.25;0.90;;;;;;;17.81;64.74;99873.69;20856661;28;20535;-68
2023/12/21 00:58:33;;;;;;;2.75;0.75;;;;;;;17.82;64.75;99851.13;20836062;28;20047;-68
2023/12/21 01:08:35;;;;;;;2.00;0.98;;;;;;;17.85;64.55;99830.28;20827235;28;20045;-68
2023/12/21 01:18:37;;;;;;;2.67;1.30;;;;;;;17.90;64.53;99812.66;20804156;28;20061;-68
2023/12/21 01:28:39;;;;;;;2.33;0.90;;;;;;;18.06;64.28;99811.84;20825917;28;20576;-68
2023/12/21 01:38:41;;;;;;;2.72;0.75;;;;;;;18.15;63.77;99795.75;20803159;28;20075;-68
2023/12/21 01:48:43;;;;;;;3.45;0.85;;;;;;;18.20;63.65;99786.13;20816489;28;20140;-68
2023/12/21 01:58:49;;;;;;;2.08;0.75;;;;;;;18.23;63.60;99760.72;20830744;28;20393;-68
2023/12/21 02:08:51;;;;;;;2.17;0.85;;;;;;;18.26;63.40;99730.78;20817590;28;20387;-68
2023/12/21 02:18:52;;;;;;;1.80;0.50;;;;;;;18.31;63.37;99717.63;20820452;28;20131;-68
2023/12/21 02:28:54;;;;;;;2.50;0.80;;;;;;;18.32;63.30;99700.44;20837264;28;20053;-69
2023/12/21 02:38:56;;;;;;;2.50;0.80;;;;;;;18.33;63.28;99672.50;20838270;28;20060;-68
2023/12/21 02:48:58;;;;;;;2.13;0.90;;;;;;;18.34;63.25;99668.78;20833234;28;20494;-68
2023/12/21 02:59:00;;;;;;;1.92;0.68;;;;;;;18.37;62.96;99635.28;20835799;28;20122;-68
2023/12/21 03:09:02;;;;;;;0.95;0.55;;;;;;;18.34;63.21;99603.28;20814636;28;20118;-68
2023/12/21 03:19:03;;;;;;;3.17;1.13;;;;;;;18.37;63.25;99576.03;20820431;28;20598;-68
2023/12/21 03:29:06;;;;;;;1.42;0.63;;;;;;;18.38;63.27;99548.06;20828499;28;20049;-68
2023/12/21 03:39:08;;;;;;;1.10;0.50;;;;;;;18.37;63.16;99528.34;20833188;28;20048;-68
2023/12/21 03:49:09;;;;;;;3.00;0.88;;;;;;;18.27;63.11;99481.91;20837618;28;20648;-68
2023/12/21 03:59:11;;;;;;;1.05;0.50;;;;;;;18.42;63.09;99447.00;20831682;28;20436;-68
2023/12/21 04:09:13;;;;;;;0.95;0.55;;;;;;;18.43;63.14;99423.56;20813305;28;20052;-68
2023/12/21 04:19:15;;;;;;;1.13;0.52;;;;;;;18.44;62.85;99407.25;20809956;28;20174;-68
2023/12/21 04:29:17;;;;;;;1.88;0.73;;;;;;;18.41;62.92;99372.56;20843666;28;20387;-68
2023/12/21 04:39:18;;;;;;;2.00;0.60;;;;;;;18.25;63.47;99333.09;20809414;28;20132;-68
2023/12/21 04:49:22;;;;;;;1.80;0.50;;;;;;;18.12;63.90;99347.13;20838647;28;20107;-68
2023/12/21 04:59:26;;;;;;;1.40;0.60;;;;;;;18.07;64.18;99319.88;20800125;28;20060;-68
2023/12/21 05:09:27;;;;;;;0.55;0.40;;;;;;;18.04;64.23;99294.13;20842395;28;20067;-68
2023/12/21 05:19:29;;;;;;;1.85;0.68;;;;;;;18.07;64.16;99293.78;20802886;28;20460;-68
2023/12/21 05:29:31;;;;;;;1.30;0.50;;;;;;;18.09;64.81;99251.34;20809781;28;20049;-67
2023/12/21 05:39:35;;;;;;;1.52;0.60;;;;;;;18.16;64.63;99239.88;20820460;28;20051;-68
2023/12/21 05:49:36;;;;;;;0.47;0.38;;;;;;;18.24;64.64;99213.72;20813502;28;20136;-68
2023/12/21 05:59:38;;;;;;;4.38;0.90;;;;;;;18.25;64.32;99163.38;20824661;28;20073;-67
2023/12/21 06:09:41;;;;;;;1.38;0.60;;;;;;;18.27;64.42;99118.25;20826970;28;20532;-68
2023/12/21 06:19:44;;;;;;;2.65;0.60;;;;;;;18.29;64.59;99109.97;20830769;28;20056;-67
2023/12/21 06:29:46;;;;;;;1.80;0.50;;;;;;;18.25;64.64;99069.13;20829548;28;20040;-68
2023/12/21 06:39:48;;;;;;;1.00;0.40;;;;;;;18.25;64.79;99047.56;20820676;28;20548;-68
2023/12/21 06:49:49;;;;;;;0.95;0.50;;;;;;;18.24;64.60;99021.66;20796207;28;20053;-68
2023/12/21 06:59:51;;;;;;;1.50;0.45;;;;;;;18.24;64.41;99000.09;20829376;28;20041;-68
2023/12/21 07:09:53;;;;;;;0.98;0.40;;;;;;;18.23;64.33;98984.97;20830413;28;20080;-68
2023/12/21 07:19:55;;;;;;;1.85;0.70;;;;;;;18.22;64.26;98992.19;20819358;28;20056;-68
2023/12/21 07:29:57;;;;;;;1.10;0.30;;;;;;;18.24;64.06;98975.88;20852754;28;20486;-68
2023/12/21 07:39:58;;;;;;;1.45;0.50;;;;;;;18.23;64.04;98974.19;20808294;28;20398;-68
2023/12/21 07:50:00;;;;;;;1.08;0.50;;;;;;;18.21;64.11;98965.47;20808807;28;20046;-67
2023/12/21 08:00:03;;;;;;;0.85;0.52;;;;;;;18.22;63.96;98932.13;20829599;28;20056;-68
2023/12/21 08:10:09;;;;;;;0.63;0.40;;;;;;;18.17;64.10;98918.38;20808063;28;20057;-68
2023/12/21 08:20:15;;;;;;;1.15;0.50;;;;;;;18.13;64.16;98896.38;20822488;28;20048;-68
2023/12/21 08:30:17;;;;;;;0.98;0.40;;;;;;;18.14;63.89;98889.13;20832369;28;20053;-68
2023/12/21 08:40:23;;;;;;;1.23;0.30;;;;;;;18.13;64.04;98836.31;20823272;28;20045;-68
2023/12/21 08:50:25;;;;;;;0.55;0.30;;;;;;;18.10;64.12;98845.56;20820213;28;20055;-68
2023/12/21 09:00:27;;;;;;;0.20;0.20;;;;;;;18.06;64.27;98802.03;20838226;28;20049;-68
2023/12/21 09:10:29;;;;;;;1.27;0.38;;;;;;;18.02;64.78;98792.66;20825584;28;20060;-69
2023/12/21 09:20:31;;;;;;;1.20;0.40;;;;;;;18.15;65.21;98797.38;20848890;28;20052;-70
2023/12/21 09:30:36;;;;;;;1.37;0.40;;;;;;;18.32;65.07;98771.03;20823834;28;20053;-69
2023/12/21 09:40:38;;;;;;;0.52;0.30;;;;;;;18.47;64.65;98752.13;20836383;28;20132;-69
2023/12/21 09:50:45;;;;;;;1.02;0.50;;;;;;;18.49;64.85;98738.44;20842719;28;20049;-70
2023/12/21 10:00:50;;;;;;;1.27;0.40;;;;;;;18.59;64.91;98730.91;20822858;28;21506;-68
2023/12/21 10:10:52;;;;;;;0.82;0.30;;;;;;;18.66;64.78;98691.34;20816753;28;20057;-69
2023/12/21 10:20:55;;;;;;;0.68;0.20;;;;;;;18.84;64.53;98701.66;20803739;28;20057;-69
2023/12/21 10:30:58;;;;;;;1.20;0.55;;;;;;;18.96;64.94;98679.53;20818613;28;20052;-67
2023/12/21 10:41:05;;;;;;;0.60;0.30;;;;;;;19.07;64.98;98683.59;20816733;28;20552;-67
2023/12/21 10:51:07;;;;;;;1.45;0.57;;;;;;;19.09;64.63;98658.06;20823140;28;20064;-67
2023/12/21 11:01:09;;;;;;;0.63;0.43;;;;;;;19.12;64.31;98651.44;20820066;28;20045;-67
2023/12/21 11:11:12;;;;;;;1.00;0.35;;;;;;;19.19;64.11;98630.75;20832802;28;20521;-68
2023/12/21 11:21:14;;;;;;;1.65;0.55;;;;;;;19.23;64.10;98632.00;20854946;28;20559;-68
2023/12/21 11:31:16;;;;;;;1.52;0.57;;;;;;;19.32;63.79;98623.72;20796127;28;20053;-67
2023/12/21 11:41:21;;;;;;;3.28;1.17;;;;;;;19.40;64.30;98647.81;20798703;28;20511;-67
2023/12/21 11:51:23;;;;;;;1.88;0.60;;;;;;;19.44;63.79;98624.00;20802878;28;20049;-67
2023/12/21 12:01:27;;;;;;;2.38;0.70;;;;;;;19.41;63.57;98611.72;20781703;28;20111;-68
2023/12/21 12:11:29;;;;;;;;;;;;;;;19.42;63.18;98607.97;20805601;28;20057;-67
2023/12/21 12:21:31;;;;;;;2.58;0.70;;;;;;;19.47;63.21;98618.19;20801851;28;19932;-67
2023/12/21 12:31:33;;;;;;;3.45;1.20;;;;;;;19.53;63.08;98604.72;20798780;28;20180;-68
2023/12/21 12:41:35;;;;;;;2.67;0.98;;;;;;;19.51;63.23;98585.22;20808457;28;20044;-66
2023/12/21 12:51:37;;;;;;;3.78;1.10;;;;;;;19.63;63.10;98606.19;20815122;28;20045;-67
2023/12/21 13:01:39;;;;;;;4.43;1.40;;;;;;;19.66;63.08;98573.41;20803966;28;20049;-67
2023/12/21 13:11:41;;;;;;;3.83;1.27;;;;;;;19.69;62.96;98608.06;20830537;28;20995;-67
2023/12/21 13:21:44;;;;;;;2.53;1.00;;;;;;;19.72;62.96;98602.25;20810130;28;20053;-67
2023/12/21 13:31:45;;;;;;;3.80;1.27;;;;;;;19.69;62.85;98630.53;20812523;28;20174;-71
2023/12/21 13:41:47;;;;;;;6.15;1.73;;;;;;;19.61;63.88;98627.97;20834218;28;20119;-70
2023/12/21 13:51:49;;;;;;;5.95;1.77;;;;;;;19.65;66.21;98626.53;20826224;28;20309;-69
2023/12/21 14:01:52;;;;;;;4.50;1.70;;;;;;;19.72;65.61;98629.25;20828930;28;20053;-68
2023/12/21 14:11:54;;;;;;;5.97;1.80;;;;;;;19.75;65.63;98646.94;20822402;28;20049;-69
2023/12/21 14:21:56;;;;;;;5.07;1.60;;;;;;;19.67;65.55;98637.13;20799218;28;20053;-70
2023/12/21 14:31:57;;;;;;;5.22;1.40;;;;;;;19.78;65.95;98760.72;20812740;28;20619;-68
2023/12/21 14:41:59;;;;;;;4.97;1.63;;;;;;;19.75;65.45;98726.03;20819425;28;20050;-68
2023/12/21 14:52:01;;;;;;;5.43;1.50;;;;;;;19.69;64.86;98741.19;20836006;28;20045;-68
2023/12/21 15:02:03;;;;;;;6.43;1.77;;;;;;;19.59;64.80;98739.88;20816802;28;20053;-67
2023/12/21 15:12:05;;;;;;;6.07;1.40;;;;;;;19.52;64.68;98797.38;20811514;28;20059;-68
2023/12/21 15:22:07;;;;;;;3.97;1.52;;;;;;;19.45;64.53;98749.78;20825874;28;20068;-67
2023/12/21 15:32:09;;;;;;;7.68;1.63;;;;;;;19.44;64.26;98767.81;20831985;28;20045;-67
2023/12/21 15:42:11;;;;;;;4.47;1.33;;;;;;;19.33;64.60;98788.13;20806788;28;20142;-70
2023/12/21 15:52:13;;;;;;;7.05;2.30;;;;;;;19.20;65.98;98764.56;20824148;28;20498;-69
2023/12/21 16:02:15;;;;;;;10.40;2.80;;;;;;;19.34;66.46;98797.03;20814334;28;20053;-68
2023/12/21 16:12:17;;;;;;;5.13;1.92;;;;;;;19.53;67.31;98800.88;20776267;28;20175;-68
2023/12/21 16:22:19;;;;;;;6.32;1.80;;;;;;;19.58;67.76;98867.78;20784215;28;20398;-67
2023/12/21 16:32:21;;;;;;;4.93;1.33;;;;;;;19.57;67.12;98877.72;20787879;28;20049;-66
2023/12/21 16:42:22;;;;;;;5.22;2.15;;;;;;;19.58;66.07;98892.88;20782802;28;20057;-66
2023/12/21 16:52:24;;;;;;;6.10;1.63;;;;;;;19.54;65.07;98884.38;20775139;28;20136;-66
2023/12/21 17:02:26;;;;;;;6.10;1.80;;;;;;;19.49;64.40;98911.09;20760406;28;20049;-66
2023/12/21 17:12:28;;;;;;;5.57;1.85;;;;;;;19.47;64.04;98928.50;20777178;28;20075;-66
2023/12/21 17:22:29;;;;;;;5.78;1.90;;;;;;;19.44;63.55;98929.72;20780221;28;20485;-71
2023/12/21 17:32:31;;;;;;;6.10;2.05;;;;;;;19.24;63.12;98962.75;20770373;28;20855;-69
2023/12/21 17:42:36;;;;;;;4.80;1.83;;;;;;;19.08;nan;98957.63;20783812;28;20112;-68
2023/12/21 17:52:38;;;;;;;7.78;2.03;;;;;;;18.96;61.99;98955.38;20797829;28;20059;-68
2023/12/21 18:02:40;;;;;;;4.82;1.75;;;;;;;18.88;61.33;98970.88;20811228;28;20060;-68
2023/12/21 18:12:41;;;;;;;5.55;1.90;;;;;;;18.77;60.65;98994.56;20805754;28;20140;-68
2023/12/21 18:22:43;;;;;;;5.55;1.92;;;;;;;18.63;59.80;99025.94;20823142;28;20095;-69
2023/12/21 18:32:45;;;;;;;5.30;1.33;;;;;;;18.46;59.29;99048.69;20801084;28;20053;-69
2023/12/21 18:42:48;;;;;;;4.47;1.70;;;;;;;18.29;58.80;99078.50;20823544;28;20511;-70
2023/12/21 18:52:53;;;;;;;4.82;2.25;;;;;;;18.15;58.55;99076.63;20783548;28;20057;-70
2023/12/21 19:02:55;;;;;;;6.53;2.20;;;;;;;18.04;58.18;99097.56;20786438;28;20384;-70
2023/12/21 19:12:57;;;;;;;7.50;2.28;;;;;;;17.96;57.72;99084.16;20813951;28;20280;-70
2023/12/21 19:22:59;;;;;;;4.88;1.88;;;;;;;17.93;57.25;99100.66;20845816;28;20046;-70
2023/12/21 19:33:04;;;;;;;5.70;2.03;;;;;;;17.87;56.56;99104.91;20823120;28;20053;-70
2023/12/21 19:43:06;;;;;;;6.03;2.20;;;;;;;17.82;56.26;99151.22;20847659;28;20131;-70
2023/12/21 19:53:11;;;;;;;8.65;2.72;;;;;;;17.75;55.94;99152.94;20839244;28;20067;-69
2023/12/21 20:03:13;;;;;;;7.23;2.13;;;;;;;17.70;55.24;99174.19;20852214;28;20044;-70
2023/12/21 20:13:15;;;;;;;6.03;2.10;;;;;;;17.65;54.57;99142.41;20840370;28;20049;-69
2023/12/21 20:23:17;;;;;;;7.65;2.58;;;;;;;17.58;54.28;99172.88;20850014;28;20386;-69
2023/12/21 20:33:19;;;;;;;7.47;2.40;;;;;;;17.53;53.82;99192.25;20815806;28;20764;-70
2023/12/21 20:43:21;;;;;;;9.90;2.58;;;;;;;17.47;53.64;99199.16;20829976;28;20050;-69
2023/12/21 20:53:23;;;;;;;6.50;2.47;;;;;;;17.38;53.48;99205.59;20841191;28;20055;-69
2023/12/21 21:03:24;;;;;;;9.48;2.42;;;;;;;17.25;53.52;99200.78;20836050;28;20517;-69
2023/12/21 21:13:26;;;;;;;9.63;2.35;;;;;;;17.14;53.56;99239.63;20833572;28;20147;-69
2023/12/21 21:23:28;;;;;;;8.52;2.55;;;;;;;17.13;53.70;99254.06;20842096;28;20049;-69
2023/12/21 21:33:32;;;;;;;9.20;3.20;;;;;;;17.16;53.50;99266.34;20831326;28;20485;-69
2023/12/21 21:43:34;;;;;;;9.20;2.13;;;;;;;17.16;53.40;99277.94;20813429;28;21214;-69
2023/12/21 21:53:36;;;;;;;6.68;2.10;;;;;;;17.16;53.34;99277.94;20819491;28;20050;-69
2023/12/21 22:03:38;;;;;;;8.02;2.40;;;;;;;17.20;53.00;99295.41;20822235;28;20072;-69
2023/12/21 22:13:40;;;;;;;7.72;2.05;;;;;;;17.18;52.93;99305.50;20819210;28;20515;-69
2023/12/21 22:23:42;;;;;;;5.80;1.70;;;;;;;17.18;52.74;99327.00;20831241;28;20060;-69
2023/12/21 22:33:44;;;;;;;7.20;1.88;;;;;;;17.00;52.62;99277.97;20821012;28;20060;-69
2023/12/21 22:43:45;;;;;;;5.65;2.00;;;;;;;17.16;52.57;99325.50;20816749;28;20107;-69
2023/12/21 22:53:47;;;;;;;6.97;1.73;;;;;;;17.15;52.57;99370.38;20811730;28;20073;-69
2023/12/21 23:03:49;;;;;;;7.05;2.03;;;;;;;17.17;52.71;99368.34;20824976;28;20600;-70
2023/12/21 23:13:51;;;;;;;6.53;2.17;;;;;;;17.31;52.53;99372.22;20815472;28;20057;-70
2023/12/21 23:23:54;;;;;;;6.95;1.83;;;;;;;17.39;52.38;99360.63;20823395;28;20049;-70
2023/12/21 23:33:56;;;;;;;6.40;2.38;;;;;;;17.43;52.32;99361.94;20837413;28;20049;-70
2023/12/21 23:43:58;;;;;;;7.93;1.83;;;;;;;17.39;52.56;99337.22;20810050;28;20075;-69
2023/12/21 23:53:59;;;;;;;4.18;1.70;;;;;;;17.44;52.36;99390.53;20859541;28;20047;-69
